createdAt,value
2022-12-29T00:00:13.935Z,100182.00
2022-12-29T00:03:02.555Z,100177.59
2022-12-29T00:05:56.743Z,100184.34
2022-12-29T00:08:43.369Z,100186.06
2022-12-29T00:11:30.142Z,100178.16
2022-12-29T00:14:34.823Z,100168.63
2022-12-29T00:17:21.689Z,100179.19
2022-12-29T00:20:28.434Z,100176.38
2022-12-29T00:23:32.567Z,100180.53
2022-12-29T00:26:37.353Z,100184.03
2022-12-29T00:29:41.590Z,100171.06
2022-12-29T00:32:45.795Z,100180.19
2022-12-29T00:35:40.489Z,100174.78
2022-12-29T00:38:46.655Z,100165.28
2022-12-29T00:41:51.011Z,100169.66
2022-12-29T00:44:37.850Z,100173.31
2022-12-29T00:47:24.651Z,100169.53
2022-12-29T00:50:10.447Z,100174.66
2022-12-29T00:52:58.771Z,100150.91
2022-12-29T00:55:46.741Z,100139.91
2022-12-29T00:58:33.271Z,100141.56
2022-12-29T01:01:20.257Z,100144.22
2022-12-29T01:04:07.629Z,100138.13
2022-12-29T01:06:54.698Z,100137.03
2022-12-29T01:09:59.986Z,100130.91
2022-12-29T01:12:48.510Z,100134.38
2022-12-29T01:15:35.345Z,100136.19
2022-12-29T01:18:23.636Z,100129.03
2022-12-29T01:21:12.061Z,100135.97
2022-12-29T01:23:58.867Z,100134.31
2022-12-29T01:26:47.821Z,100134.38
2022-12-29T01:29:37.185Z,100129.88
2022-12-29T01:32:25.537Z,100127.16
2022-12-29T01:35:12.296Z,100129.03
2022-12-29T01:37:59.036Z,100116.75
2022-12-29T01:40:47.013Z,100106.47
2022-12-29T01:43:44.040Z,100098.97
2022-12-29T01:46:34.039Z,100117.13
2022-12-29T01:49:24.196Z,100106.47
2022-12-29T01:52:11.393Z,100114.97
2022-12-29T01:54:59.354Z,100114.16
2022-12-29T01:57:51.566Z,100108.78
2022-12-29T02:00:39.838Z,100107.25
2022-12-29T02:03:29.703Z,100107.84
2022-12-29T02:06:20.934Z,100108.00
2022-12-29T02:09:07.522Z,100104.50
2022-12-29T02:11:55.215Z,100097.38
2022-12-29T02:14:41.961Z,100097.47
2022-12-29T02:17:45.302Z,100095.75
2022-12-29T02:21:11.220Z,100097.69
2022-12-29T02:24:22.997Z,100084.38
2022-12-29T02:27:28.737Z,100083.56
2022-12-29T02:30:50.256Z,100077.63
2022-12-29T02:33:52.070Z,100074.84
2022-12-29T02:36:45.507Z,100072.03
2022-12-29T02:39:38.771Z,100064.31
2022-12-29T02:42:32.480Z,100066.81
2022-12-29T02:45:26.244Z,100058.19
2022-12-29T02:48:20.143Z,100059.53
2022-12-29T02:51:16.831Z,100050.22
2022-12-29T02:54:21.993Z,100066.75
2022-12-29T02:57:13.649Z,100058.81
2022-12-29T03:00:04.591Z,100052.72
2022-12-29T03:03:13.811Z,100053.50
2022-12-29T03:06:15.615Z,100047.28
2022-12-29T03:09:19.132Z,100045.13
2022-12-29T03:12:20.659Z,100049.75
2022-12-29T03:15:31.535Z,100055.63
2022-12-29T03:18:25.093Z,100040.22
2022-12-29T03:21:17.006Z,100043.34
2022-12-29T03:24:05.951Z,100038.66
2022-12-29T03:26:55.213Z,100028.16
2022-12-29T03:29:53.427Z,100034.19
2022-12-29T03:32:44.232Z,100030.47
2022-12-29T03:35:37.567Z,100030.78
2022-12-29T03:38:37.366Z,100025.09
2022-12-29T03:41:28.897Z,100019.97
2022-12-29T03:44:16.715Z,100014.59
2022-12-29T03:47:04.716Z,100011.22
2022-12-29T03:49:52.554Z,100009.47
2022-12-29T03:52:39.657Z,100012.81
2022-12-29T03:55:29.045Z,100013.16
2022-12-29T03:58:17.427Z,100014.16
2022-12-29T04:01:19.395Z,100022.63
2022-12-29T04:04:07.703Z,100031.50
2022-12-29T04:06:54.471Z,100013.69
2022-12-29T04:09:41.741Z,100022.97
2022-12-29T04:12:32.799Z,100021.31
2022-12-29T04:15:20.160Z,100017.44
2022-12-29T04:18:07.054Z,100025.50
2022-12-29T04:21:03.930Z,100020.06
2022-12-29T04:23:52.635Z,100004.06
2022-12-29T04:26:39.512Z,100005.53
2022-12-29T04:29:46.514Z,100008.13
2022-12-29T04:32:51.654Z,100011.34
2022-12-29T04:35:38.421Z,100008.56
2022-12-29T04:38:26.068Z,100012.91
2022-12-29T04:41:12.805Z,100006.66
2022-12-29T04:44:00.099Z,99993.31
2022-12-29T04:46:57.514Z,100010.03
2022-12-29T04:50:09.982Z,99992.59
2022-12-29T04:53:09.557Z,100000.09
2022-12-29T04:55:56.271Z,99996.56
2022-12-29T04:58:43.144Z,99987.94
2022-12-29T05:01:29.978Z,99985.13
2022-12-29T05:04:19.601Z,99983.47
2022-12-29T05:07:07.511Z,99980.38
2022-12-29T05:09:54.309Z,99973.53
2022-12-29T05:12:41.394Z,99985.81
2022-12-29T05:15:27.977Z,99970.78
2022-12-29T05:18:14.932Z,99981.00
2022-12-29T05:21:03.201Z,99976.94
2022-12-29T05:23:49.983Z,99982.22
2022-12-29T05:26:36.869Z,99966.59
2022-12-29T05:29:56.043Z,99983.06
2022-12-29T05:32:43.065Z,99976.63
2022-12-29T05:35:30.245Z,99964.97
2022-12-29T05:38:18.620Z,99959.53
2022-12-29T05:41:05.596Z,99954.13
2022-12-29T05:44:21.872Z,99950.41
2022-12-29T05:47:27.458Z,99941.63
2022-12-29T05:50:32.688Z,99940.03
2022-12-29T05:53:33.154Z,99939.09
2022-12-29T05:56:21.020Z,99944.22
2022-12-29T05:59:14.265Z,99944.09
2022-12-29T06:02:02.777Z,99940.47
2022-12-29T06:04:49.640Z,99935.44
2022-12-29T06:07:36.613Z,99933.00
2022-12-29T06:10:25.265Z,99939.22
2022-12-29T06:13:19.942Z,99912.00
2022-12-29T06:16:09.277Z,99932.41
2022-12-29T06:18:57.821Z,99923.50
2022-12-29T06:21:44.532Z,99942.38
2022-12-29T06:24:31.343Z,99940.72
2022-12-29T06:27:19.489Z,99941.28
2022-12-29T06:30:10.099Z,99934.28
2022-12-29T06:32:58.538Z,99939.38
2022-12-29T06:35:46.952Z,99943.34
2022-12-29T06:38:36.328Z,99950.34
2022-12-29T06:41:28.385Z,99949.50
2022-12-29T06:44:43.947Z,99951.03
2022-12-29T06:47:30.478Z,99951.03
2022-12-29T06:50:17.403Z,99952.69
2022-12-29T06:53:04.191Z,99949.25
2022-12-29T06:55:51.512Z,99939.09
2022-12-29T06:58:38.079Z,99930.25
2022-12-29T07:01:26.394Z,99933.56
2022-12-29T07:04:13.357Z,99936.25
2022-12-29T07:07:00.086Z,99939.56
2022-12-29T07:09:46.941Z,99945.78
2022-12-29T07:12:33.830Z,99948.44
2022-12-29T07:15:20.731Z,99934.34
2022-12-29T07:18:08.690Z,99940.94
2022-12-29T07:20:55.243Z,99943.72
2022-12-29T07:23:42.098Z,99927.47
2022-12-29T07:26:35.911Z,99941.00
2022-12-29T07:29:23.176Z,99946.22
2022-12-29T07:32:10.196Z,99961.22
2022-12-29T07:34:58.553Z,99943.78
2022-12-29T07:37:45.456Z,99944.31
2022-12-29T07:40:32.171Z,99942.97
2022-12-29T07:43:19.146Z,99929.94
2022-12-29T07:46:53.779Z,99941.09
2022-12-29T07:49:32.608Z,99953.00
2022-12-29T07:52:20.706Z,99939.91
2022-12-29T07:55:08.672Z,99944.56
2022-12-29T07:57:55.685Z,99931.25
2022-12-29T08:00:42.618Z,99932.97
2022-12-29T08:03:29.468Z,99947.53
2022-12-29T08:06:16.278Z,99946.69
2022-12-29T08:09:13.651Z,99959.47
2022-12-29T08:12:01.444Z,99947.03
2022-12-29T08:14:48.323Z,99954.84
2022-12-29T08:17:35.106Z,99953.75
2022-12-29T08:20:21.903Z,99949.31
2022-12-29T08:23:08.889Z,99941.09
2022-12-29T08:26:00.623Z,99944.56
2022-12-29T08:28:47.418Z,99943.19
2022-12-29T08:31:34.406Z,99932.59
2022-12-29T08:34:21.337Z,99937.19
2022-12-29T08:37:08.053Z,99924.84
2022-12-29T08:39:54.962Z,99945.22
2022-12-29T08:42:43.467Z,99944.34
2022-12-29T08:45:30.269Z,99943.34
2022-12-29T08:48:19.284Z,99932.69
2022-12-29T08:51:06.481Z,99930.75
2022-12-29T08:53:53.557Z,99936.34
2022-12-29T08:56:40.832Z,99936.34
2022-12-29T08:59:29.976Z,99932.78
2022-12-29T09:02:22.114Z,99935.78
2022-12-29T09:05:11.864Z,99930.13
2022-12-29T09:07:58.644Z,99932.69
2022-12-29T09:10:46.463Z,99888.72
2022-12-29T09:13:33.232Z,99908.63
2022-12-29T09:16:24.293Z,99905.78
2022-12-29T09:19:11.331Z,99926.13
2022-12-29T09:21:58.216Z,99922.38
2022-12-29T09:24:45.148Z,99920.03
2022-12-29T09:27:32.209Z,99921.59
2022-12-29T09:30:19.061Z,99925.31
2022-12-29T09:33:06.871Z,99921.16
2022-12-29T09:35:54.815Z,99927.47
2022-12-29T09:38:41.663Z,99926.25
2022-12-29T09:41:36.732Z,99911.13
2022-12-29T09:44:28.501Z,99912.47
2022-12-29T09:47:18.482Z,99903.78
2022-12-29T09:50:22.153Z,99904.50
2022-12-29T09:53:17.190Z,99900.22
2022-12-29T09:56:04.763Z,99902.56
2022-12-29T09:58:56.643Z,99910.28
2022-12-29T10:01:48.642Z,99896.09
2022-12-29T10:04:35.648Z,99908.28
2022-12-29T10:07:33.714Z,99904.84
2022-12-29T10:10:32.357Z,99910.56
2022-12-29T10:13:30.574Z,99895.50
2022-12-29T10:16:26.889Z,99891.84
2022-12-29T10:19:46.209Z,99906.91
2022-12-29T10:22:55.429Z,99900.38
2022-12-29T10:25:46.208Z,99860.56
2022-12-29T10:28:41.438Z,99903.22
2022-12-29T10:31:36.603Z,99894.19
2022-12-29T10:34:27.440Z,99894.50
2022-12-29T10:37:33.459Z,99894.41
2022-12-29T10:40:29.595Z,99906.81
2022-12-29T10:43:28.122Z,99909.09
2022-12-29T10:46:18.647Z,99891.22
2022-12-29T10:49:05.610Z,99885.91
2022-12-29T10:51:54.988Z,99893.25
2022-12-29T10:54:50.643Z,99891.75
2022-12-29T10:57:41.964Z,99885.84
2022-12-29T11:00:28.880Z,99891.44
2022-12-29T11:03:43.924Z,99899.03
2022-12-29T11:06:31.509Z,99887.06
2022-12-29T11:09:41.454Z,99887.84
2022-12-29T11:12:31.615Z,99877.94
2022-12-29T11:15:19.789Z,99881.78
2022-12-29T11:18:06.750Z,99880.28
2022-12-29T11:20:55.588Z,99880.59
2022-12-29T11:23:43.989Z,99882.50
2022-12-29T11:26:34.777Z,99889.47
2022-12-29T11:29:30.477Z,99818.97
2022-12-29T11:32:28.500Z,99870.88
2022-12-29T11:35:32.949Z,99878.34
2022-12-29T11:38:23.941Z,99872.28
2022-12-29T11:41:15.304Z,99864.91
2022-12-29T11:44:05.907Z,99866.09
2022-12-29T11:46:54.177Z,99869.16
2022-12-29T11:49:42.259Z,99869.84
2022-12-29T11:52:32.216Z,99887.31
2022-12-29T11:55:23.108Z,99888.50
2022-12-29T11:58:18.188Z,99883.38
2022-12-29T12:01:08.504Z,99867.81
2022-12-29T12:04:03.429Z,99868.19
2022-12-29T12:06:59.986Z,99850.22
2022-12-29T12:09:52.837Z,99860.03
2022-12-29T12:12:49.499Z,99866.81
2022-12-29T12:15:45.866Z,99882.59
2022-12-29T12:18:41.780Z,99886.88
2022-12-29T12:21:40.448Z,99867.28
2022-12-29T12:24:43.862Z,99892.31
2022-12-29T12:27:37.318Z,99894.03
2022-12-29T12:30:26.425Z,99890.47
2022-12-29T12:33:20.528Z,99899.50
2022-12-29T12:36:23.515Z,99876.91
2022-12-29T12:39:21.274Z,99893.59
2022-12-29T12:42:26.275Z,99891.81
2022-12-29T12:45:37.252Z,99879.63
2022-12-29T12:48:54.791Z,99859.34
2022-12-29T12:51:50.590Z,99884.06
2022-12-29T12:54:51.780Z,99877.97
2022-12-29T12:57:51.471Z,99887.66
2022-12-29T13:00:47.940Z,99889.59
2022-12-29T13:03:49.355Z,99894.09
2022-12-29T13:06:47.457Z,99909.00
2022-12-29T13:09:53.878Z,99910.06
2022-12-29T13:12:51.937Z,99915.00
2022-12-29T13:15:47.096Z,99912.38
2022-12-29T13:18:45.423Z,99915.31
2022-12-29T13:21:57.317Z,99909.72
2022-12-29T13:24:57.999Z,99921.22
2022-12-29T13:27:53.550Z,99926.22
2022-12-29T13:30:47.821Z,99926.34
2022-12-29T13:33:43.825Z,99922.19
2022-12-29T13:36:39.466Z,99919.41
2022-12-29T13:39:33.808Z,99888.84
2022-12-29T13:42:21.877Z,99927.63
2022-12-29T13:45:16.039Z,99924.84
2022-12-29T13:48:07.899Z,99928.91
2022-12-29T13:50:57.728Z,99932.41
2022-12-29T13:54:01.254Z,99939.00
2022-12-29T13:56:53.650Z,99943.97
2022-12-29T13:59:51.627Z,99908.13
2022-12-29T14:02:53.504Z,99943.19
2022-12-29T14:05:40.406Z,99946.94
2022-12-29T14:08:27.050Z,99957.22
2022-12-29T14:11:16.806Z,99959.94
2022-12-29T14:14:14.388Z,99958.16
2022-12-29T14:17:14.805Z,99967.69
2022-12-29T14:20:08.717Z,99979.31
2022-12-29T14:23:01.267Z,99984.38
2022-12-29T14:26:00.941Z,99974.97
2022-12-29T14:28:49.000Z,99983.81
2022-12-29T14:31:41.828Z,99989.28
2022-12-29T14:34:40.471Z,100000.31
2022-12-29T14:37:30.837Z,99993.19
2022-12-29T14:40:21.067Z,100006.66
2022-12-29T14:43:16.300Z,100009.72
2022-12-29T14:46:04.403Z,99996.22
2022-12-29T14:48:58.558Z,100003.50
2022-12-29T14:51:45.501Z,99993.72
2022-12-29T14:54:54.954Z,100003.09
2022-12-29T14:57:43.948Z,100006.00
2022-12-29T15:00:35.383Z,100000.84
2022-12-29T15:03:25.423Z,100011.56
2022-12-29T15:06:17.971Z,100013.31
2022-12-29T15:09:12.966Z,100013.25
2022-12-29T15:12:11.113Z,100013.13
2022-12-29T15:15:02.522Z,100031.41
2022-12-29T15:17:50.127Z,100085.19
2022-12-29T15:20:37.160Z,100064.31
2022-12-29T15:23:24.786Z,100075.50
2022-12-29T15:26:12.251Z,100082.41
2022-12-29T15:29:00.453Z,100080.16
2022-12-29T15:31:49.398Z,100077.69
2022-12-29T15:34:36.358Z,100053.59
2022-12-29T15:37:25.725Z,100054.59
2022-12-29T15:40:25.333Z,100061.13
2022-12-29T15:43:46.547Z,100060.00
2022-12-29T15:46:35.599Z,100068.09
2022-12-29T15:49:30.369Z,100071.78
2022-12-29T15:52:21.238Z,100070.41
2022-12-29T15:55:20.354Z,100074.81
2022-12-29T15:58:20.433Z,100081.34
2022-12-29T16:01:07.498Z,100070.81
2022-12-29T16:03:56.636Z,100074.56
2022-12-29T16:06:56.045Z,100082.13
2022-12-29T16:09:45.057Z,100081.47
2022-12-29T16:12:34.993Z,100081.75
2022-12-29T16:15:22.439Z,100092.75
2022-12-29T16:18:25.892Z,100101.78
2022-12-29T16:21:21.837Z,100105.56
2022-12-29T16:24:14.633Z,100116.97
2022-12-29T16:27:08.630Z,100122.41
2022-12-29T16:29:57.219Z,100085.16
2022-12-29T16:32:48.679Z,100121.94
2022-12-29T16:35:46.893Z,100121.47
2022-12-29T16:38:36.347Z,100121.78
2022-12-29T16:41:31.625Z,100132.00
2022-12-29T16:44:20.582Z,100099.53
2022-12-29T16:47:21.781Z,100116.63
2022-12-29T16:50:15.375Z,100117.34
2022-12-29T16:53:03.754Z,100117.22
2022-12-29T16:55:53.814Z,100127.16
2022-12-29T16:58:43.492Z,100131.25
2022-12-29T17:01:32.502Z,100127.41
2022-12-29T17:04:19.505Z,100119.00
2022-12-29T17:07:17.464Z,100137.38
2022-12-29T17:10:04.052Z,100124.63
2022-12-29T17:12:52.402Z,100126.97
2022-12-29T17:15:39.028Z,100126.78
2022-12-29T17:18:25.654Z,100137.13
2022-12-29T17:21:13.920Z,100128.34
2022-12-29T17:24:02.229Z,100134.34
2022-12-29T17:26:51.559Z,100138.47
2022-12-29T17:29:42.547Z,100133.75
2022-12-29T17:32:29.327Z,100118.91
2022-12-29T17:35:16.920Z,100134.28
2022-12-29T17:38:03.894Z,100129.91
2022-12-29T17:40:51.740Z,100128.78
2022-12-29T17:43:38.598Z,100132.25
2022-12-29T17:46:26.875Z,100129.28
2022-12-29T17:49:16.372Z,100146.16
2022-12-29T17:52:03.108Z,100139.78
2022-12-29T17:54:53.919Z,100130.31
2022-12-29T17:57:40.815Z,100143.19
2022-12-29T18:00:33.789Z,100144.16
2022-12-29T18:03:27.577Z,100147.00
2022-12-29T18:06:15.475Z,100147.94
2022-12-29T18:09:02.974Z,100150.28
2022-12-29T18:11:49.736Z,100146.09
2022-12-29T18:14:37.142Z,100143.28
2022-12-29T18:17:25.084Z,100150.47
2022-12-29T18:20:13.628Z,100115.69
2022-12-29T18:23:00.466Z,100141.28
2022-12-29T18:25:51.533Z,100159.19
2022-12-29T18:28:38.437Z,100160.06
2022-12-29T18:31:27.772Z,100140.38
2022-12-29T18:34:16.430Z,100174.13
2022-12-29T18:37:04.351Z,100173.00
2022-12-29T18:39:51.385Z,100179.38
2022-12-29T18:42:38.243Z,100172.25
2022-12-29T18:45:26.222Z,100184.16
2022-12-29T18:48:12.795Z,100180.13
2022-12-29T18:51:00.288Z,100165.13
2022-12-29T18:53:49.086Z,100172.09
2022-12-29T18:56:35.502Z,100168.25
2022-12-29T18:59:22.148Z,100170.72
2022-12-29T19:02:16.811Z,100168.31
2022-12-29T19:05:08.032Z,100184.19
2022-12-29T19:07:56.061Z,100184.56
2022-12-29T19:10:45.554Z,100180.31
2022-12-29T19:13:32.150Z,100193.22
2022-12-29T19:16:21.517Z,100196.78
2022-12-29T19:19:09.838Z,100195.44
2022-12-29T19:21:58.208Z,100201.19
2022-12-29T19:24:44.575Z,100207.28
2022-12-29T19:27:33.901Z,100181.38
2022-12-29T19:30:21.674Z,100202.25
2022-12-29T19:33:10.248Z,100208.50
2022-12-29T19:36:00.963Z,100176.31
2022-12-29T19:38:48.445Z,100209.59
2022-12-29T19:41:35.174Z,100210.72
2022-12-29T19:44:24.314Z,100156.00
2022-12-29T19:47:11.299Z,100206.34
2022-12-29T19:49:58.114Z,100215.59
2022-12-29T19:52:45.433Z,100219.59
2022-12-29T19:55:33.225Z,100199.19
2022-12-29T19:58:20.920Z,100224.28
2022-12-29T20:01:12.333Z,100227.88
2022-12-29T20:03:59.464Z,100226.81
2022-12-29T20:06:46.041Z,100225.53
2022-12-29T20:09:33.161Z,100218.78
2022-12-29T20:12:25.736Z,100230.91
2022-12-29T20:15:16.195Z,100235.84
2022-12-29T20:18:14.195Z,100237.66
2022-12-29T20:21:05.010Z,100222.66
2022-12-29T20:23:52.839Z,100230.75
2022-12-29T20:26:39.770Z,100227.34
2022-12-29T20:29:26.972Z,100198.13
2022-12-29T20:32:15.187Z,100234.38
2022-12-29T20:35:03.301Z,100228.63
2022-12-29T20:37:50.085Z,100223.34
2022-12-29T20:40:44.135Z,100232.94
2022-12-29T20:43:32.807Z,100237.94
2022-12-29T20:46:21.800Z,100234.47
2022-12-29T20:49:08.876Z,100246.13
2022-12-29T20:52:06.237Z,100244.59
2022-12-29T20:54:53.528Z,100236.72
2022-12-29T20:58:13.997Z,100234.94
2022-12-29T21:00:46.702Z,100235.00
2022-12-29T21:03:33.695Z,100228.13
2022-12-29T21:06:21.639Z,100229.59
2022-12-29T21:09:09.694Z,100225.19
2022-12-29T21:11:56.445Z,100219.97
2022-12-29T21:14:45.831Z,100213.91
2022-12-29T21:17:32.747Z,100212.78
2022-12-29T21:20:20.827Z,100219.41
2022-12-29T21:23:07.652Z,100224.78
2022-12-29T21:25:56.342Z,100187.19
2022-12-29T21:28:46.306Z,100226.16
2022-12-29T21:31:34.966Z,100225.13
2022-12-29T21:34:21.500Z,100229.25
2022-12-29T21:37:08.459Z,100220.63
2022-12-29T21:39:54.995Z,100228.44
2022-12-29T21:42:43.171Z,100233.22
2022-12-29T21:45:31.145Z,100226.50
2022-12-29T21:48:24.344Z,100233.56
2022-12-29T21:51:32.329Z,100235.34
2022-12-29T21:54:37.737Z,100236.25
2022-12-29T21:57:42.390Z,100227.88
2022-12-29T22:00:48.067Z,100240.78
2022-12-29T22:03:52.107Z,100250.19
2022-12-29T22:06:56.236Z,100245.56
2022-12-29T22:10:00.937Z,100256.72
2022-12-29T22:13:00.093Z,100251.44
2022-12-29T22:15:48.177Z,100239.50
2022-12-29T22:18:35.152Z,100261.09
2022-12-29T22:21:22.100Z,100267.91
2022-12-29T22:24:10.584Z,100261.84
2022-12-29T22:26:56.987Z,100269.59
2022-12-29T22:29:43.813Z,100271.16
2022-12-29T22:32:32.306Z,100275.03
2022-12-29T22:35:19.003Z,100274.72
2022-12-29T22:38:05.992Z,100275.69
2022-12-29T22:40:52.839Z,100266.13
2022-12-29T22:43:39.558Z,100261.06
2022-12-29T22:46:26.561Z,100266.22
2022-12-29T22:49:15.826Z,100270.84
2022-12-29T22:52:03.016Z,100282.84
2022-12-29T22:54:49.985Z,100282.75
2022-12-29T22:57:37.389Z,100282.63
2022-12-29T23:00:24.088Z,100289.84
2022-12-29T23:03:11.734Z,100284.63
2022-12-29T23:06:00.976Z,100286.34
2022-12-29T23:08:48.141Z,100285.94
2022-12-29T23:11:35.441Z,100286.81
2022-12-29T23:14:22.290Z,100293.66
2022-12-29T23:17:09.229Z,100292.59
2022-12-29T23:19:56.127Z,100300.13
2022-12-29T23:22:44.285Z,100302.50
2022-12-29T23:25:30.990Z,100305.31
2022-12-29T23:28:17.978Z,100302.72
2022-12-29T23:31:04.873Z,100315.81
2022-12-29T23:33:51.413Z,100315.81
2022-12-29T23:36:38.829Z,100312.41
2022-12-29T23:39:26.969Z,100319.56
2022-12-29T23:42:13.608Z,100319.97
2022-12-29T23:45:00.319Z,100324.56
2022-12-29T23:47:47.180Z,100327.13
2022-12-29T23:50:33.908Z,100336.44
2022-12-29T23:53:20.776Z,100334.88
2022-12-29T23:56:11.104Z,100336.91
2022-12-29T23:58:57.578Z,100337.69
